Avondale, CO

10:00 PM MDT on September 30, 2014 (GMT -0600)
Pueblo Memorial | Change Station
CLOSE
Current Station
Airport
Location: Pueblo,
Elevation: 4721 ft
Nearby Weather Stations

Elev 4721 ft 38.29 °N, 104.50 °W | Updated 7 minutes ago

Clear
Clear
58 °F
Feels Like 58 °F
N
13
Wind Variable Wind from NW

Today
High -- | Low -- °F
--% Chance of Precip.
Yesterday
High -- | Low -- °F
Precip. -- in
6:52 AM 6:42 PM
Waxing Crescent, 43% visible
Pressure 29.72 in
Visibility 10.0 miles
Clouds Clear
Dew Point 34 °F
Humidity 41%
Rainfall 0.00 in
Snow Depth 0 in , 1 in , 0 in
UV 0 out of 12
Pollen 4.40 out of 12
Air Quality Not available.
Flu Activity Not available.
METAR KPUB 010353Z 31011KT 10SM CLR 14/01 A2984 RMK AO2 SLP063 T01440011

More Conditions Fewer Conditions

Pressure 29.72 in
Visibility 10.0 miles
Clouds Clear
Dew Point 34 °F
Humidity 41%
Rainfall 0.00 in
Snow Depth 0 in , 1 in , 0 in
UV 0 out of 12
Pollen 4.40 out of 12
Air Quality Not available.
Flu Activity Not available.
METAR KPUB 010353Z 31011KT 10SM CLR 14/01 A2984 RMK AO2 SLP063 T01440011

More Conditions Fewer Conditions

10-Day Weather Forecast

Almanac

Astronomy

Sep. 30, 2014 Rise Set
Actual Time 6:52 AM MDT 6:42 PM MDT
Civil Twilight 6:26 AM MDT 7:08 PM MDT
Nautical Twilight 5:55 AM MDT 7:38 PM MDT
Astronomical Twilight 5:24 AM MDT 8:09 PM MDT
Moon 12:58 PM MDT (9/30) 11:18 PM MDT (9/30)
Length of Visible Light 12h 42m
Length of Day
11h 49m
Tomorrow will be 2m 27s shorter.
Waxing Crescent, 43% of the Moon is Illuminated
Oct 1
Waxing Crescent
Oct 1
First Quarter
Oct 8
Full
Oct 15
Last Quarter
Oct 23
New

Today's Extremes

State Highs State Lows

Community

WunderPhotos

Upload Photos

1,757,840 photos uploaded!

Nearby

Snow Depth

Station Depth Elevation
Lynx Pass 0 in 8880 ft
Vallecito 1 in 10880 ft
Columbine 0 in 9160 ft
Middle Fork Camp 1 in 9000 ft
McClure Pass 1 in 9500 ft

Earthquake Activity

City Distance Mag. Time & Date
Trinidad, Colorado 80 miles 2.9 3:55 AM MDT
2014-09-30
Minimum magnitude displayed is 2.5.

Coastal Water Temperatures

Place Temperature
No Stations Reporting

Nearby Weather Stations